La Crosse Municipal Airport
KLSE : now visible

Airfield :











YOU CAN JOIN US ON...

 
LOGIN :

Register | Disclaimer

   EN    FR    IT 

 









Legend :    VFR   Marginal VFR   IFR   Intensive IFR   Very Intensive IFR
Visi :
Ceiling :
>= 8 km
>= 3000ft
5 to 8 km
1000 to 3000 ft
1500m to 5 km
500 to 1000 ft
800 to 1500m
200 to 500 ft
< 800m
< 200 ft
Symbols :   Thunderstorms  Fog  Heavy snow  Heavy precipitations  Wind > 20 kt






- Airport Elevation : 655 ft
- IATA code : LSE


KLSE - La Crosse Municipal

CURRENT METAR :
  • 280753Z AUTO 15004KT 10SM CLR M06/M07 A2986 RMK AO2 SLP123 I1000 T10561067

EXPIRED METARs :
  • 280653Z AUTO 00000KT 10SM CLR M04/M06 A2986 RMK AO2 SLP120 T10441061
  • 280553Z AUTO 13004KT 10SM CLR M05/M07 A2985 RMK AO2 SLP120 T10501067 10017 21050 400831050 51004

TAF KLSE
Valid from the 28 at 06:00 until the 29 at 06:00 UTC


280520Z 2806/2906 16002KT P6SM SCT250
FM281800 17011G23KT P6SM BKN250
FM282300 17010KT P6SM OVC210 WS020/21040KT
KZMP FIR / North America



MET'MAP, your aeronautical weather chart ! - Copyright ORBIFLY December 2007 - Disclaimer

ORBIFLY MET'MAP TEAM :

Programming & Development : Alexandra Zaïnal
Original concept : Baudouin d'Aumeries
Technical & hardware support : Manuel Goepfert
Assistance : Marc-Olivier Méhu




SOURCES & CREDITS :

   NOAA       Earth
Advisory